Time,TemperatureF,DewpointF,PressureIn,WindDirection,WindDirectionDegrees,WindSpeedMPH,WindSpeedGustMPH,Humidity,HourlyPrecipIn,Conditions,Clouds,dailyrainin,SolarRadiationWatts/m^2,SoftwareType,DateUTC
2013-09-27 00:02:00,46.0,45.0,-100.00,SSW,196,0.0,4.0,97,0.00,,,0.00,8.000000,,2013-09-27 07:02:00,
2013-09-27 00:12:00,46.0,45.0,-100.00,SSW,196,0.0,4.0,97,0.00,,,0.00,8.000000,,2013-09-27 07:12:00,
2013-09-27 00:44:00,46.0,46.0,-100.00,NW,310,0.0,0.0,99,0.00,,,0.00,8.000000,,2013-09-27 07:44:00,
2013-09-27 00:53:00,46.0,46.0,-100.00,NW,310,0.0,0.0,99,0.00,,,0.00,8.000000,,2013-09-27 07:53:00,
2013-09-27 01:02:00,46.0,46.0,-100.00,NW,310,0.0,0.0,99,0.00,,,0.00,8.000000,,2013-09-27 08:02:00,
2013-09-27 01:11:00,46.0,46.0,-100.00,NW,310,0.0,0.0,99,0.00,,,0.00,8.000000,,2013-09-27 08:11:00,
2013-09-27 01:42:00,45.0,45.0,-100.00,SSE,148,0.0,0.0,99,0.00,,,0.00,7.000000,,2013-09-27 08:42:00,
2013-09-27 01:52:00,45.0,45.0,-100.00,SSE,148,0.0,0.0,99,0.00,,,0.00,7.000000,,2013-09-27 08:52:00,
2013-09-27 02:02:00,45.0,45.0,-100.00,SSE,148,0.0,0.0,99,0.00,,,0.00,7.000000,,2013-09-27 09:02:00,
2013-09-27 02:11:00,45.0,45.0,-100.00,SSE,148,0.0,0.0,99,0.00,,,0.00,7.000000,,2013-09-27 09:11:00,
2013-09-27 02:44:00,44.0,43.0,-100.00,SSW,194,0.0,2.0,97,0.00,,,0.00,7.000000,,2013-09-27 09:44:00,
2013-09-27 02:53:00,44.0,43.0,-100.00,SSW,194,0.0,2.0,97,0.00,,,0.00,7.000000,,2013-09-27 09:53:00,
2013-09-27 03:03:00,44.0,43.0,-100.00,SSW,194,0.0,2.0,97,0.00,,,0.00,7.000000,,2013-09-27 10:03:00,
2013-09-27 03:12:00,44.0,43.0,-100.00,SSW,194,0.0,2.0,97,0.00,,,0.00,7.000000,,2013-09-27 10:12:00,
2013-09-27 03:42:00,45.0,44.0,-100.00,SSW,200,3.0,6.0,98,0.00,,,0.00,8.000000,,2013-09-27 10:42:00,
2013-09-27 03:52:00,45.0,44.0,-100.00,SSW,200,3.0,6.0,98,0.00,,,0.00,8.000000,,2013-09-27 10:52:00,
2013-09-27 04:02:00,45.0,44.0,-100.00,SSW,200,3.0,6.0,98,0.00,,,0.00,8.000000,,2013-09-27 11:02:00,
2013-09-27 04:11:00,45.0,44.0,-100.00,SSW,200,3.0,6.0,98,0.00,,,0.00,8.000000,,2013-09-27 11:11:00,
2013-09-27 04:43:00,43.0,36.0,-100.00,South,187,4.0,8.0,75,0.00,,,0.00,8.000000,,2013-09-27 11:43:00,
2013-09-27 04:52:00,43.0,36.0,-100.00,South,187,4.0,8.0,75,0.00,,,0.00,8.000000,,2013-09-27 11:52:00,
2013-09-27 05:02:00,43.0,36.0,-100.00,South,187,4.0,8.0,75,0.00,,,0.00,8.000000,,2013-09-27 12:02:00,
2013-09-27 05:11:00,43.0,36.0,-100.00,South,187,4.0,8.0,75,0.00,,,0.00,8.000000,,2013-09-27 12:11:00,
2013-09-27 05:42:00,43.0,33.0,-100.00,SSW,192,4.0,8.0,68,0.00,,,0.00,8.000000,,2013-09-27 12:42:00,
2013-09-27 05:52:00,43.0,33.0,-100.00,SSW,192,4.0,8.0,68,0.00,,,0.00,8.000000,,2013-09-27 12:52:00,
2013-09-27 06:02:00,43.0,33.0,-100.00,SSW,192,4.0,8.0,68,0.00,,,0.00,8.000000,,2013-09-27 13:02:00,
2013-09-27 06:11:00,43.0,33.0,-100.00,SSW,192,4.0,8.0,68,0.00,,,0.00,8.000000,,2013-09-27 13:11:00,
2013-09-27 06:42:00,43.0,33.0,-100.00,SSW,195,4.0,6.0,68,0.00,,,0.00,8.000000,,2013-09-27 13:42:00,
2013-09-27 06:52:00,43.0,33.0,-100.00,SSW,195,4.0,6.0,68,0.00,,,0.00,8.000000,,2013-09-27 13:52:00,
2013-09-27 07:02:00,43.0,33.0,-100.00,SSW,195,4.0,6.0,68,0.00,,,0.00,8.000000,,2013-09-27 14:02:00,
2013-09-27 07:11:00,43.0,33.0,-100.00,SSW,195,4.0,6.0,68,0.00,,,0.00,8.000000,,2013-09-27 14:11:00,
2013-09-27 07:42:00,43.0,33.0,-100.00,SSW,198,4.0,7.0,68,0.00,,,0.00,9.000000,,2013-09-27 14:42:00,
2013-09-27 07:52:00,43.0,33.0,-100.00,SSW,198,4.0,7.0,68,0.00,,,0.00,9.000000,,2013-09-27 14:52:00,
2013-09-27 08:02:00,43.0,33.0,-100.00,SSW,198,4.0,7.0,68,0.00,,,0.00,9.000000,,2013-09-27 15:02:00,
2013-09-27 08:11:00,43.0,33.0,-100.00,SSW,198,4.0,7.0,68,0.00,,,0.00,9.000000,,2013-09-27 15:11:00,
2013-09-27 08:44:00,44.0,35.0,-100.00,SSW,196,5.0,11.0,70,0.00,,,0.00,48.000000,,2013-09-27 15:44:00,
2013-09-27 08:54:00,44.0,35.0,-100.00,SSW,196,5.0,11.0,70,0.00,,,0.00,48.000000,,2013-09-27 15:54:00,
2013-09-27 09:04:00,44.0,35.0,-100.00,SSW,196,5.0,11.0,70,0.00,,,0.00,48.000000,,2013-09-27 16:04:00,
2013-09-27 09:13:00,44.0,35.0,-100.00,SSW,196,5.0,11.0,70,0.00,,,0.00,48.000000,,2013-09-27 16:13:00,
2013-09-27 09:44:00,45.0,38.0,-100.00,SSW,197,5.0,12.0,77,0.00,,,0.00,164.000000,,2013-09-27 16:44:00,
2013-09-27 09:53:00,45.0,38.0,-100.00,SSW,197,5.0,12.0,77,0.00,,,0.00,164.000000,,2013-09-27 16:53:00,
2013-09-27 10:03:00,45.0,38.0,-100.00,SSW,197,5.0,12.0,77,0.00,,,0.00,164.000000,,2013-09-27 17:03:00,
2013-09-27 10:12:00,45.0,38.0,-100.00,SSW,197,5.0,12.0,77,0.00,,,0.00,164.000000,,2013-09-27 17:12:00,
2013-09-27 10:43:00,48.0,48.0,-100.00,SSW,193,6.0,11.0,99,0.00,,,0.00,245.000000,,2013-09-27 17:43:00,
2013-09-27 10:52:00,48.0,48.0,-100.00,SSW,193,6.0,11.0,99,0.00,,,0.00,245.000000,,2013-09-27 17:52:00,
2013-09-27 11:02:00,48.0,48.0,-100.00,SSW,193,6.0,11.0,99,0.00,,,0.00,245.000000,,2013-09-27 18:02:00,
2013-09-27 11:13:00,48.0,48.0,-100.00,SSW,193,6.0,11.0,99,0.00,,,0.00,245.000000,,2013-09-27 18:13:00,
2013-09-27 11:43:00,50.0,47.0,-100.00,SSW,193,7.0,12.0,88,0.00,,,0.00,374.000000,,2013-09-27 18:43:00,
2013-09-27 11:52:00,50.0,47.0,-100.00,SSW,193,7.0,12.0,88,0.00,,,0.00,374.000000,,2013-09-27 18:52:00,
2013-09-27 12:02:00,50.0,47.0,-100.00,SSW,193,7.0,12.0,88,0.00,,,0.00,374.000000,,2013-09-27 19:02:00,
2013-09-27 12:12:00,50.0,47.0,-100.00,SSW,193,7.0,12.0,88,0.00,,,0.00,374.000000,,2013-09-27 19:12:00,
2013-09-27 12:43:00,48.0,47.0,-100.00,South,190,6.0,13.0,97,0.01,,,0.01,234.000000,,2013-09-27 19:43:00,
2013-09-27 12:53:00,48.0,47.0,-100.00,South,190,6.0,13.0,97,0.01,,,0.01,234.000000,,2013-09-27 19:53:00,
2013-09-27 13:03:00,48.0,47.0,-100.00,South,190,6.0,13.0,97,0.01,,,0.01,234.000000,,2013-09-27 20:03:00,
2013-09-27 13:12:00,48.0,47.0,-100.00,South,190,6.0,13.0,97,0.01,,,0.01,234.000000,,2013-09-27 20:12:00,
2013-09-27 13:43:00,50.0,48.0,-100.00,SSW,195,8.0,14.0,93,0.00,,,0.01,320.000000,,2013-09-27 20:43:00,
2013-09-27 13:52:00,50.0,48.0,-100.00,SSW,195,8.0,14.0,93,0.00,,,0.01,320.000000,,2013-09-27 20:52:00,
2013-09-27 14:02:00,50.0,48.0,-100.00,SSW,195,8.0,14.0,93,0.00,,,0.01,320.000000,,2013-09-27 21:02:00,
2013-09-27 14:11:00,50.0,48.0,-100.00,SSW,195,8.0,14.0,93,0.00,,,0.01,320.000000,,2013-09-27 21:11:00,
2013-09-27 14:14:00,50.0,50.0,-100.00,SSW,192,8.0,15.0,99,0.02,,,-99.99,297.000000,,2013-09-27 21:14:00,
2013-09-27 14:44:00,50.0,50.0,-100.00,SSW,192,8.0,15.0,99,0.02,,,-99.99,297.000000,,2013-09-27 21:44:00,
2013-09-27 14:54:00,50.0,50.0,-100.00,SSW,192,8.0,15.0,99,0.02,,,-99.99,297.000000,,2013-09-27 21:54:00,
2013-09-27 15:04:00,50.0,50.0,-100.00,SSW,192,8.0,15.0,99,0.02,,,-99.99,297.000000,,2013-09-27 22:04:00,
2013-09-27 15:43:00,49.0,49.0,-100.00,SSW,193,10.0,21.0,99,0.05,,,0.08,248.000000,,2013-09-27 22:43:00,
2013-09-27 15:53:00,49.0,49.0,-100.00,SSW,193,10.0,21.0,99,0.05,,,0.08,248.000000,,2013-09-27 22:53:00,
2013-09-27 16:03:00,49.0,49.0,-100.00,SSW,193,10.0,21.0,99,0.05,,,0.08,248.000000,,2013-09-27 23:03:00,
2013-09-27 16:12:00,49.0,49.0,-100.00,SSW,193,10.0,21.0,99,0.05,,,0.08,248.000000,,2013-09-27 23:12:00,